PWSweather.com
Personal Weather Stations
Station Observations
ANTHEMNP
Anthem North Parkside, Anthem, AZ 85086

Anthem North ParksideAnthem, AZ 85086

Lat: 33.876464, Lon: -112.13861199999997

Elevation: 1930

Station Type: Davis Vantage Vue with Pro 2 console

http://www.azjerry.com/ANPW/wxindex.php

Latest ConditionsUpdated 4:50:05 PM MST Monday, Oct 21, 2019
Currently Today's Max Today's Min Today's Average
Temperature 82.0°F27.8°C 84.6°F29.2°C 64.4°F18.0°C 72.8°F22.7°C
Dew Point 20.0°F-6.7°C 27.0°F-2.8°C 4.0°F-15.6°C 13.6°F-10.2°C
Winds 1.9 mph SW3.1 kmh SW 16.9 mph -27.2 kmh - - 8.4 mph 13.5 kmh
Wind Gusts 7.0 mph11.3 kmh 28.0 mph45.1 kmh - -
Humidity 10% 13% 8% 10%
Pressure 30.02 in1016.6 mb 30.08 in1018.6 mb 29.96 in1014.6 mb -
Hour Temp Dew Point Humidity Winds Wind Gusts Pressure Precip Precip Rate Daily Precip Total
04:50 PM 82.0°F27.8°C 20.0°F-6.7°C 10% 1.9 mph SW3.1 kmh SW 7.0 mph11.3 kmh 30.02 in1016.6 mb 0.00 in0.0 mm 0.00 in0.0 mm 0.00 in0.0 mm
04:40 PM 82.3°F27.9°C 23.0°F-5.0°C 11% 1.0 mph NW1.6 kmh NW 6.0 mph9.7 kmh 30.02 in1016.6 mb 0.00 in0.0 mm 0.00 in0.0 mm 0.00 in0.0 mm
04:30 PM 82.5°F28.1°C 25.0°F-3.9°C 12% 1.1 mph W1.8 kmh W 4.0 mph6.4 kmh 30.01 in1016.3 mb 0.00 in0.0 mm 0.00 in0.0 mm 0.00 in0.0 mm
04:20 PM 82.8°F28.2°C 25.0°F-3.9°C 12% 1.5 mph NW2.4 kmh NW 7.0 mph11.3 kmh 30.01 in1016.3 mb 0.00 in0.0 mm 0.00 in0.0 mm 0.00 in0.0 mm
04:10 PM 83.2°F28.4°C 25.0°F-3.9°C 12% 1.2 mph ESE1.9 kmh ESE 5.0 mph8.0 kmh 30.01 in1016.3 mb 0.00 in0.0 mm 0.00 in0.0 mm 0.00 in0.0 mm
04:00 PM 83.2°F28.4°C 25.0°F-3.9°C 12% 1.5 mph SW2.4 kmh SW 7.0 mph11.3 kmh 30.01 in1016.3 mb 0.00 in0.0 mm 0.00 in0.0 mm 0.00 in0.0 mm
03:50 PM 84.2°F29.0°C 24.0°F-4.4°C 11% 1.8 mph ESE2.9 kmh ESE 5.0 mph8.0 kmh 30.01 in1016.3 mb 0.00 in0.0 mm 0.00 in0.0 mm 0.00 in0.0 mm
03:40 PM 84.6°F29.2°C 24.0°F-4.4°C 11% 1.6 mph S2.6 kmh S 10.0 mph16.1 kmh 30.01 in1016.3 mb 0.00 in0.0 mm 0.00 in0.0 mm 0.00 in0.0 mm
03:30 PM 84.6°F29.2°C 22.0°F-5.6°C 10% 2.5 mph SW4.0 kmh SW 7.0 mph11.3 kmh 30.01 in1016.3 mb 0.00 in0.0 mm 0.00 in0.0 mm 0.00 in0.0 mm
03:20 PM 84.1°F28.9°C 22.0°F-5.6°C 10% 2.7 mph SSW4.3 kmh SSW 7.0 mph11.3 kmh 30.01 in1016.3 mb 0.00 in0.0 mm 0.00 in0.0 mm 0.00 in0.0 mm
03:10 PM 84.5°F29.2°C 20.0°F-6.7°C 9% 1.6 mph SW2.6 kmh SW 7.0 mph11.3 kmh 30.01 in1016.3 mb 0.00 in0.0 mm 0.00 in0.0 mm 0.00 in0.0 mm
03:00 PM 84.2°F29.0°C 19.0°F-7.2°C 9% 1.3 mph S2.1 kmh S 4.0 mph6.4 kmh 30.01 in1016.3 mb 0.00 in0.0 mm 0.00 in0.0 mm 0.00 in0.0 mm
02:50 PM 84.0°F28.9°C 19.0°F-7.2°C 9% 2.3 mph SW3.7 kmh SW 9.0 mph14.5 kmh 30.02 in1016.6 mb 0.00 in0.0 mm 0.00 in0.0 mm 0.00 in0.0 mm
02:40 PM 83.7°F28.7°C 22.0°F-5.6°C 10% 1.8 mph SW2.9 kmh SW 7.0 mph11.3 kmh 30.01 in1016.3 mb 0.00 in0.0 mm 0.00 in0.0 mm 0.00 in0.0 mm
02:30 PM 83.3°F28.5°C 21.0°F-6.1°C 10% 1.7 mph W2.7 kmh W 6.0 mph9.7 kmh 30.02 in1016.6 mb 0.00 in0.0 mm 0.00 in0.0 mm 0.00 in0.0 mm
02:20 PM 82.9°F28.3°C 21.0°F-6.1°C 10% 2.7 mph NW4.3 kmh NW 9.0 mph14.5 kmh 30.01 in1016.3 mb 0.00 in0.0 mm 0.00 in0.0 mm 0.00 in0.0 mm
02:10 PM 83.0°F28.3°C 25.0°F-3.9°C 12% 3.3 mph SW5.3 kmh SW 11.0 mph17.7 kmh 30.01 in1016.3 mb 0.00 in0.0 mm 0.00 in0.0 mm 0.00 in0.0 mm
02:00 PM 82.9°F28.3°C 25.0°F-3.9°C 12% 2.3 mph SSW3.7 kmh SSW 7.0 mph11.3 kmh 30.02 in1016.6 mb 0.00 in0.0 mm 0.00 in0.0 mm 0.00 in0.0 mm
01:50 PM 82.3°F27.9°C 27.0°F-2.8°C 13% 1.3 mph SSW2.1 kmh SSW 5.0 mph8.0 kmh 30.02 in1016.6 mb 0.00 in0.0 mm 0.00 in0.0 mm 0.00 in0.0 mm
01:40 PM 82.0°F27.8°C 20.0°F-6.7°C 10% 2.1 mph NE3.4 kmh NE 8.0 mph12.9 kmh 30.02 in1016.6 mb 0.00 in0.0 mm 0.00 in0.0 mm 0.00 in0.0 mm
01:30 PM 82.5°F28.1°C 23.0°F-5.0°C 11% 1.3 mph N2.1 kmh N 5.0 mph8.0 kmh 30.02 in1016.6 mb 0.00 in0.0 mm 0.00 in0.0 mm 0.00 in0.0 mm
01:20 PM 81.6°F27.6°C 22.0°F-5.6°C 11% 2.1 mph NW3.4 kmh NW 8.0 mph12.9 kmh 30.03 in1016.9 mb 0.00 in0.0 mm 0.00 in0.0 mm 0.00 in0.0 mm
01:10 PM 80.8°F27.1°C 26.0°F-3.3°C 13% 2.2 mph NE3.5 kmh NE 8.0 mph12.9 kmh 30.03 in1016.9 mb 0.00 in0.0 mm 0.00 in0.0 mm 0.00 in0.0 mm
01:00 PM 81.1°F27.3°C 24.0°F-4.4°C 12% 2.6 mph NNE4.2 kmh NNE 9.0 mph14.5 kmh 30.04 in1017.3 mb 0.00 in0.0 mm 0.00 in0.0 mm 0.00 in0.0 mm
12:50 PM 80.6°F27.0°C 23.0°F-5.0°C 12% 4.3 mph WNW6.9 kmh WNW 11.0 mph17.7 kmh 30.05 in1017.6 mb 0.00 in0.0 mm 0.00 in0.0 mm 0.00 in0.0 mm
12:40 PM 79.9°F26.6°C 23.0°F-5.0°C 12% 4.3 mph NNE6.9 kmh NNE 13.0 mph20.9 kmh 30.05 in1017.6 mb 0.00 in0.0 mm 0.00 in0.0 mm 0.00 in0.0 mm
12:30 PM 80.1°F26.7°C 23.0°F-5.0°C 12% 3.1 mph N5.0 kmh N 12.0 mph19.3 kmh 30.06 in1017.9 mb 0.00 in0.0 mm 0.00 in0.0 mm 0.00 in0.0 mm
12:20 PM 79.6°F26.4°C 23.0°F-5.0°C 12% 3.2 mph NNW5.1 kmh NNW 9.0 mph14.5 kmh 30.06 in1017.9 mb 0.00 in0.0 mm 0.00 in0.0 mm 0.00 in0.0 mm
12:10 PM 79.3°F26.3°C 22.0°F-5.6°C 12% 3.7 mph NNE6.0 kmh NNE 10.0 mph16.1 kmh 30.06 in1017.9 mb 0.00 in0.0 mm 0.00 in0.0 mm 0.00 in0.0 mm
12:00 PM 79.1°F26.2°C 22.0°F-5.6°C 13% 3.0 mph N4.8 kmh N 8.0 mph12.9 kmh 30.07 in1018.3 mb 0.00 in0.0 mm 0.00 in0.0 mm 0.00 in0.0 mm
11:50 AM 78.7°F25.9°C 24.0°F-4.4°C 13% 4.7 mph NNW7.6 kmh NNW 9.0 mph14.5 kmh 30.07 in1018.3 mb 0.00 in0.0 mm 0.00 in0.0 mm 0.00 in0.0 mm
11:40 AM 77.9°F25.5°C 23.0°F-5.0°C 13% 6.0 mph NNW9.7 kmh NNW 11.0 mph17.7 kmh 30.07 in1018.3 mb 0.00 in0.0 mm 0.00 in0.0 mm 0.00 in0.0 mm
11:30 AM 77.8°F25.4°C 23.0°F-5.0°C 13% 5.5 mph N8.9 kmh N 13.0 mph20.9 kmh 30.07 in1018.3 mb 0.00 in0.0 mm 0.00 in0.0 mm 0.00 in0.0 mm
11:20 AM 77.5°F25.3°C 21.0°F-6.1°C 12% 5.7 mph NNW9.2 kmh NNW 15.0 mph24.1 kmh 30.07 in1018.3 mb 0.00 in0.0 mm 0.00 in0.0 mm 0.00 in0.0 mm
11:10 AM 77.2°F25.1°C 23.0°F-5.0°C 13% 6.1 mph NE9.8 kmh NE 13.0 mph20.9 kmh 30.07 in1018.3 mb 0.00 in0.0 mm 0.00 in0.0 mm 0.00 in0.0 mm
11:00 AM 76.9°F24.9°C 22.0°F-5.6°C 13% 6.8 mph NNE10.9 kmh NNE 14.0 mph22.5 kmh 30.07 in1018.3 mb 0.00 in0.0 mm 0.00 in0.0 mm 0.00 in0.0 mm
10:50 AM 76.4°F24.7°C 22.0°F-5.6°C 13% 6.4 mph N10.3 kmh N 14.0 mph22.5 kmh 30.07 in1018.3 mb 0.00 in0.0 mm 0.00 in0.0 mm 0.00 in0.0 mm
10:40 AM 75.7°F24.3°C 20.0°F-6.7°C 12% 8.2 mph NNE13.2 kmh NNE 13.0 mph20.9 kmh 30.08 in1018.6 mb 0.00 in0.0 mm 0.00 in0.0 mm 0.00 in0.0 mm
10:30 AM 75.4°F24.1°C 19.0°F-7.2°C 12% 6.5 mph N10.5 kmh N 14.0 mph22.5 kmh 30.08 in1018.6 mb 0.00 in0.0 mm 0.00 in0.0 mm 0.00 in0.0 mm
10:20 AM 74.7°F23.7°C 21.0°F-6.1°C 13% 7.5 mph N12.1 kmh N 13.0 mph20.9 kmh 30.08 in1018.6 mb 0.00 in0.0 mm 0.00 in0.0 mm 0.00 in0.0 mm
10:10 AM 73.8°F23.2°C 18.0°F-7.8°C 12% 8.0 mph N12.9 kmh N 15.0 mph24.1 kmh 30.08 in1018.6 mb 0.00 in0.0 mm 0.00 in0.0 mm 0.00 in0.0 mm
10:00 AM 73.5°F23.1°C 18.0°F-7.8°C 12% 8.2 mph NNE13.2 kmh NNE 15.0 mph24.1 kmh 30.08 in1018.6 mb 0.00 in0.0 mm 0.00 in0.0 mm 0.00 in0.0 mm
09:50 AM 73.6°F23.1°C 18.0°F-7.8°C 12% 9.5 mph NNE15.3 kmh NNE 18.0 mph29.0 kmh 30.08 in1018.6 mb 0.00 in0.0 mm 0.00 in0.0 mm 0.00 in0.0 mm
09:40 AM 73.3°F22.9°C 16.0°F-8.9°C 11% 9.7 mph NE15.6 kmh NE 16.0 mph25.7 kmh 30.08 in1018.6 mb 0.00 in0.0 mm 0.00 in0.0 mm 0.00 in0.0 mm
09:30 AM 72.9°F22.7°C 17.0°F-8.3°C 12% 7.4 mph NNE11.9 kmh NNE 15.0 mph24.1 kmh 30.07 in1018.3 mb 0.00 in0.0 mm 0.00 in0.0 mm 0.00 in0.0 mm
09:20 AM 72.5°F22.5°C 15.0°F-9.4°C 11% 7.3 mph E11.7 kmh E 15.0 mph24.1 kmh 30.07 in1018.3 mb 0.00 in0.0 mm 0.00 in0.0 mm 0.00 in0.0 mm
09:10 AM 72.5°F22.5°C 15.0°F-9.4°C 11% 6.2 mph NE10.0 kmh NE 11.0 mph17.7 kmh 30.07 in1018.3 mb 0.00 in0.0 mm 0.00 in0.0 mm 0.00 in0.0 mm
09:00 AM 72.2°F22.3°C 15.0°F-9.4°C 11% 5.8 mph N9.3 kmh N 13.0 mph20.9 kmh 30.07 in1018.3 mb 0.00 in0.0 mm 0.00 in0.0 mm 0.00 in0.0 mm
08:50 AM 71.2°F21.8°C 14.0°F-10.0°C 11% 4.3 mph N6.9 kmh N 9.0 mph14.5 kmh 30.07 in1018.3 mb 0.00 in0.0 mm 0.00 in0.0 mm 0.00 in0.0 mm
08:40 AM 70.7°F21.5°C 11.0°F-11.7°C 10% 5.2 mph N8.4 kmh N 10.0 mph16.1 kmh 30.07 in1018.3 mb 0.00 in0.0 mm 0.00 in0.0 mm 0.00 in0.0 mm
08:30 AM 70.1°F21.2°C 13.0°F-10.6°C 11% 5.1 mph NNW8.2 kmh NNW 11.0 mph17.7 kmh 30.07 in1018.3 mb 0.00 in0.0 mm 0.00 in0.0 mm 0.00 in0.0 mm
08:20 AM 69.4°F20.8°C 10.0°F-12.2°C 10% 7.0 mph N11.3 kmh N 14.0 mph22.5 kmh 30.06 in1017.9 mb 0.00 in0.0 mm 0.00 in0.0 mm 0.00 in0.0 mm
08:10 AM 69.8°F21.0°C 11.0°F-11.7°C 10% 6.6 mph N10.6 kmh N 15.0 mph24.1 kmh 30.06 in1017.9 mb 0.00 in0.0 mm 0.00 in0.0 mm 0.00 in0.0 mm
08:00 AM 67.7°F19.8°C 9.0°F-12.8°C 10% 5.6 mph NE9.0 kmh NE 12.0 mph19.3 kmh 30.05 in1017.6 mb 0.00 in0.0 mm 0.00 in0.0 mm 0.00 in0.0 mm
07:50 AM 66.9°F19.4°C 8.0°F-13.3°C 10% 5.5 mph N8.9 kmh N 12.0 mph19.3 kmh 30.05 in1017.6 mb 0.00 in0.0 mm 0.00 in0.0 mm 0.00 in0.0 mm
07:40 AM 65.7°F18.7°C 10.0°F-12.2°C 11% 5.8 mph NE9.3 kmh NE 13.0 mph20.9 kmh 30.04 in1017.3 mb 0.00 in0.0 mm 0.00 in0.0 mm 0.00 in0.0 mm
07:30 AM 65.4°F18.6°C 9.0°F-12.8°C 11% 8.5 mph NNE13.7 kmh NNE 15.0 mph24.1 kmh 30.04 in1017.3 mb 0.00 in0.0 mm 0.00 in0.0 mm 0.00 in0.0 mm
07:20 AM 64.4°F18.0°C 9.0°F-12.8°C 11% 9.9 mph NNE15.9 kmh NNE 18.0 mph29.0 kmh 30.03 in1016.9 mb 0.00 in0.0 mm 0.00 in0.0 mm 0.00 in0.0 mm
07:10 AM 65.3°F18.5°C 7.0°F-13.9°C 10% 10.4 mph NNE16.7 kmh NNE 20.0 mph32.2 kmh 30.02 in1016.6 mb 0.00 in0.0 mm 0.00 in0.0 mm 0.00 in0.0 mm
07:00 AM 65.9°F18.8°C 8.0°F-13.3°C 10% 11.9 mph N19.2 kmh N 23.0 mph37.0 kmh 30.02 in1016.6 mb 0.00 in0.0 mm 0.00 in0.0 mm 0.00 in0.0 mm
06:50 AM 65.8°F18.8°C 5.0°F-15.0°C 9% 11.4 mph NNW18.3 kmh NNW 23.0 mph37.0 kmh 30.02 in1016.6 mb 0.00 in0.0 mm 0.00 in0.0 mm 0.00 in0.0 mm
06:40 AM 65.9°F18.8°C 5.0°F-15.0°C 9% 12.4 mph NNW20.0 kmh NNW 24.0 mph38.6 kmh 30.02 in1016.6 mb 0.00 in0.0 mm 0.00 in0.0 mm 0.00 in0.0 mm
06:30 AM 66.2°F19.0°C 5.0°F-15.0°C 9% 13.7 mph NNE22.0 kmh NNE 24.0 mph38.6 kmh 30.02 in1016.6 mb 0.00 in0.0 mm 0.00 in0.0 mm 0.00 in0.0 mm
06:20 AM 65.9°F18.8°C 5.0°F-15.0°C 9% 12.9 mph NNE20.8 kmh NNE 24.0 mph38.6 kmh 30.02 in1016.6 mb 0.00 in0.0 mm 0.00 in0.0 mm 0.00 in0.0 mm
06:10 AM 65.4°F18.6°C 5.0°F-15.0°C 9% 11.9 mph N19.2 kmh N 18.0 mph29.0 kmh 30.02 in1016.6 mb 0.00 in0.0 mm 0.00 in0.0 mm 0.00 in0.0 mm
06:00 AM 64.7°F18.2°C 7.0°F-13.9°C 10% 10.6 mph NW17.1 kmh NW 18.0 mph29.0 kmh 30.02 in1016.6 mb 0.00 in0.0 mm 0.00 in0.0 mm 0.00 in0.0 mm
05:50 AM 65.3°F18.5°C 7.0°F-13.9°C 10% 11.5 mph NE18.5 kmh NE 19.0 mph30.6 kmh 30.02 in1016.6 mb 0.00 in0.0 mm 0.00 in0.0 mm 0.00 in0.0 mm
05:40 AM 66.3°F19.1°C 6.0°F-14.4°C 9% 13.0 mph ENE20.9 kmh ENE 22.0 mph35.4 kmh 30.01 in1016.3 mb 0.00 in0.0 mm 0.00 in0.0 mm 0.00 in0.0 mm
05:30 AM 66.4°F19.1°C 6.0°F-14.4°C 9% 14.3 mph N23.0 kmh N 23.0 mph37.0 kmh 30.01 in1016.3 mb 0.00 in0.0 mm 0.00 in0.0 mm 0.00 in0.0 mm
05:20 AM 66.2°F19.0°C 5.0°F-15.0°C 9% 13.6 mph NNE21.9 kmh NNE 22.0 mph35.4 kmh 30.00 in1015.9 mb 0.00 in0.0 mm 0.00 in0.0 mm 0.00 in0.0 mm
05:10 AM 66.1°F18.9°C 5.0°F-15.0°C 9% 13.4 mph N21.6 kmh N 24.0 mph38.6 kmh 30.00 in1015.9 mb 0.00 in0.0 mm 0.00 in0.0 mm 0.00 in0.0 mm
05:00 AM 66.0°F18.9°C 5.0°F-15.0°C 9% 13.1 mph N21.1 kmh N 26.0 mph41.8 kmh 30.00 in1015.9 mb 0.00 in0.0 mm 0.00 in0.0 mm 0.00 in0.0 mm
04:50 AM 65.9°F18.8°C 5.0°F-15.0°C 9% 14.5 mph NNE23.3 kmh NNE 27.0 mph43.5 kmh 30.00 in1015.9 mb 0.00 in0.0 mm 0.00 in0.0 mm 0.00 in0.0 mm
04:40 AM 65.5°F18.6°C 7.0°F-13.9°C 10% 14.6 mph N23.5 kmh N 24.0 mph38.6 kmh 29.99 in1015.6 mb 0.00 in0.0 mm 0.00 in0.0 mm 0.00 in0.0 mm
04:30 AM 65.5°F18.6°C 7.0°F-13.9°C 10% 15.2 mph NNW24.5 kmh NNW 26.0 mph41.8 kmh 29.99 in1015.6 mb 0.00 in0.0 mm 0.00 in0.0 mm 0.00 in0.0 mm
04:20 AM 64.9°F18.3°C 7.0°F-13.9°C 10% 13.1 mph NE21.1 kmh NE 25.0 mph40.2 kmh 29.98 in1015.2 mb 0.00 in0.0 mm 0.00 in0.0 mm 0.00 in0.0 mm
04:10 AM 65.0°F18.3°C 7.0°F-13.9°C 10% 15.3 mph N24.6 kmh N 24.0 mph38.6 kmh 29.98 in1015.2 mb 0.00 in0.0 mm 0.00 in0.0 mm 0.00 in0.0 mm
04:00 AM 65.3°F18.5°C 7.0°F-13.9°C 10% 16.1 mph NE25.9 kmh NE 25.0 mph40.2 kmh 29.98 in1015.2 mb 0.00 in0.0 mm 0.00 in0.0 mm 0.00 in0.0 mm
03:50 AM 65.5°F18.6°C 7.0°F-13.9°C 10% 16.9 mph ENE27.2 kmh ENE 25.0 mph40.2 kmh 29.98 in1015.2 mb 0.00 in0.0 mm 0.00 in0.0 mm 0.00 in0.0 mm
03:40 AM 65.5°F18.6°C 7.0°F-13.9°C 10% 15.6 mph NNW25.1 kmh NNW 28.0 mph45.1 kmh 29.97 in1014.9 mb 0.00 in0.0 mm 0.00 in0.0 mm 0.00 in0.0 mm
03:30 AM 65.9°F18.8°C 5.0°F-15.0°C 9% 15.8 mph NNW25.4 kmh NNW 26.0 mph41.8 kmh 29.97 in1014.9 mb 0.00 in0.0 mm 0.00 in0.0 mm 0.00 in0.0 mm
03:20 AM 65.7°F18.7°C 5.0°F-15.0°C 9% 15.2 mph N24.5 kmh N 25.0 mph40.2 kmh 29.98 in1015.2 mb 0.00 in0.0 mm 0.00 in0.0 mm 0.00 in0.0 mm
03:10 AM 65.7°F18.7°C 5.0°F-15.0°C 9% 14.9 mph NNE24.0 kmh NNE 25.0 mph40.2 kmh 29.97 in1014.9 mb 0.00 in0.0 mm 0.00 in0.0 mm 0.00 in0.0 mm
03:00 AM 66.0°F18.9°C 5.0°F-15.0°C 9% 14.8 mph N23.8 kmh N 26.0 mph41.8 kmh 29.97 in1014.9 mb 0.00 in0.0 mm 0.00 in0.0 mm 0.00 in0.0 mm
02:50 AM 66.1°F18.9°C 5.0°F-15.0°C 9% 15.1 mph NE24.3 kmh NE 25.0 mph40.2 kmh 29.98 in1015.2 mb 0.00 in0.0 mm 0.00 in0.0 mm 0.00 in0.0 mm
02:40 AM 65.9°F18.8°C 5.0°F-15.0°C 9% 13.2 mph N21.2 kmh N 24.0 mph38.6 kmh 29.98 in1015.2 mb 0.00 in0.0 mm 0.00 in0.0 mm 0.00 in0.0 mm
02:30 AM 66.0°F18.9°C 5.0°F-15.0°C 9% 14.0 mph NE22.5 kmh NE 24.0 mph38.6 kmh 29.98 in1015.2 mb 0.00 in0.0 mm 0.00 in0.0 mm 0.00 in0.0 mm
02:20 AM 65.9°F18.8°C 5.0°F-15.0°C 9% 14.2 mph NE22.9 kmh NE 24.0 mph38.6 kmh 29.98 in1015.2 mb 0.00 in0.0 mm 0.00 in0.0 mm 0.00 in0.0 mm
02:10 AM 65.9°F18.8°C 5.0°F-15.0°C 9% 13.0 mph NE20.9 kmh NE 22.0 mph35.4 kmh 29.97 in1014.9 mb 0.00 in0.0 mm 0.00 in0.0 mm 0.00 in0.0 mm
02:00 AM 66.5°F19.2°C 6.0°F-14.4°C 9% 13.6 mph NNW21.9 kmh NNW 24.0 mph38.6 kmh 29.97 in1014.9 mb 0.00 in0.0 mm 0.00 in0.0 mm 0.00 in0.0 mm
01:50 AM 66.7°F19.3°C 6.0°F-14.4°C 9% 14.3 mph N23.0 kmh N 26.0 mph41.8 kmh 29.97 in1014.9 mb 0.00 in0.0 mm 0.00 in0.0 mm 0.00 in0.0 mm
01:40 AM 67.0°F19.4°C 6.0°F-14.4°C 9% 15.4 mph N24.8 kmh N 28.0 mph45.1 kmh 29.98 in1015.2 mb 0.00 in0.0 mm 0.00 in0.0 mm 0.00 in0.0 mm
01:30 AM 67.2°F19.6°C 6.0°F-14.4°C 9% 14.8 mph NNE23.8 kmh NNE 25.0 mph40.2 kmh 29.98 in1015.2 mb 0.00 in0.0 mm 0.00 in0.0 mm 0.00 in0.0 mm
01:20 AM 67.5°F19.7°C 6.0°F-14.4°C 9% 14.4 mph N23.2 kmh N 23.0 mph37.0 kmh 29.98 in1015.2 mb 0.00 in0.0 mm 0.00 in0.0 mm 0.00 in0.0 mm
01:10 AM 67.7°F19.8°C 4.0°F-15.6°C 8% 15.1 mph N24.3 kmh N 28.0 mph45.1 kmh 29.97 in1014.9 mb 0.00 in0.0 mm 0.00 in0.0 mm 0.00 in0.0 mm
01:00 AM 67.9°F19.9°C 4.0°F-15.6°C 8% 12.6 mph NE20.3 kmh NE 21.0 mph33.8 kmh 29.97 in1014.9 mb 0.00 in0.0 mm 0.00 in0.0 mm 0.00 in0.0 mm
12:50 AM 68.2°F20.1°C 4.0°F-15.6°C 8% 12.2 mph NNW19.6 kmh NNW 23.0 mph37.0 kmh 29.97 in1014.9 mb 0.00 in0.0 mm 0.00 in0.0 mm 0.00 in0.0 mm
12:40 AM 67.9°F19.9°C 4.0°F-15.6°C 8% 12.7 mph NNE20.4 kmh NNE 23.0 mph37.0 kmh 29.97 in1014.9 mb 0.00 in0.0 mm 0.00 in0.0 mm 0.00 in0.0 mm
12:30 AM 68.2°F20.1°C 4.0°F-15.6°C 8% 11.9 mph N19.2 kmh N 19.0 mph30.6 kmh 29.96 in1014.6 mb 0.00 in0.0 mm 0.00 in0.0 mm 0.00 in0.0 mm
12:20 AM 68.3°F20.2°C 5.0°F-15.0°C 8% 11.6 mph NNW18.7 kmh NNW 22.0 mph35.4 kmh 29.97 in1014.9 mb 0.00 in0.0 mm 0.00 in0.0 mm 0.00 in0.0 mm
12:10 AM 68.7°F20.4°C 5.0°F-15.0°C 8% 11.4 mph N18.3 kmh N 18.0 mph29.0 kmh 29.98 in1015.2 mb 0.00 in0.0 mm 0.00 in0.0 mm 0.00 in0.0 mm
12:00 AM 68.9°F20.5°C 5.0°F-15.0°C 8% 12.7 mph NE20.4 kmh NE 23.0 mph37.0 kmh 29.98 in1015.2 mb 0.00 in0.0 mm 0.00 in0.0 mm 0.00 in0.0 mm